Time;durP1;ratioP1;P1;durP2;ratioP2;P2;SDS_P1;SDS_P2;PMS_P1;PMS_P2;Temp;Humidity;BMP_temperature;BMP_pressure;BME280_temperature;BME280_humidity;BME280_pressure;Samples;Min_cycle;Max_cycle;Signal;HPM_P1;HPM_P2
2023/01/28 00:02:10;;;;;;;;;;;;;;;2.74;83.07;94534.50;5033532;28;993;-51
2023/01/28 00:04:36;;;;;;;;;;;;;;;2.75;83.07;94538.78;5033240;28;1034;-51
2023/01/28 00:07:02;;;;;;;;;;;;;;;2.76;83.79;94540.47;5036119;28;1906;-51
2023/01/28 00:09:28;;;;;;;;;;;;;;;2.64;84.82;94541.53;5037435;28;958;-51
2023/01/28 00:11:54;;;;;;;;;;;;;;;2.62;85.15;94539.00;5037319;28;1021;-51
2023/01/28 00:14:20;;;;;;;;;;;;;;;2.67;85.33;94544.72;5037446;28;1002;-51
2023/01/28 00:16:46;;;;;;;;;;;;;;;2.68;85.01;94546.41;5037270;28;1059;-51
2023/01/28 00:19:12;;;;;;;;;;;;;;;2.69;84.88;94547.25;5037175;28;1046;-51
2023/01/28 00:21:39;;;;;;;;;;;;;;;2.69;84.84;94552.50;5037206;28;978;-51
2023/01/28 00:24:05;;;;;;;;;;;;;;;2.68;85.21;94553.50;5037186;28;954;-50
2023/01/28 00:26:31;;;;;;;;;;;;;;;2.71;84.45;94553.22;5036904;28;1902;-51
2023/01/28 00:28:59;;;;;;;;;;;;;;;2.70;84.46;94554.19;5036960;28;1054;-51
2023/01/28 00:31:26;;;;;;;;;;;;;;;2.77;83.86;94568.56;5037052;28;1242;-51
2023/01/28 00:33:55;;;;;;;;;;;;;;;2.67;84.99;94567.66;5036772;28;1343;-51
2023/01/28 00:36:24;;;;;;;;;;;;;;;2.55;85.24;94566.88;5036848;28;1058;-51
2023/01/28 00:38:55;;;;;;;;;;;;;;;2.56;86.07;94572.97;5036957;28;1009;-51
2023/01/28 00:41:24;;;;;;;;;;;;;;;2.56;86.16;94573.81;5036806;28;1108;-51
2023/01/28 00:43:51;;;;;;;;;;;;;;;2.57;85.92;94585.22;5035847;28;1018;-51
2023/01/28 00:46:18;;;;;;;;;;;;;;;2.58;86.15;94581.59;5036834;28;1914;-51
2023/01/28 00:48:44;;;;;;;;;;;;;;;2.56;85.44;94583.53;5036784;28;1037;-51
2023/01/28 00:51:11;;;;;;;;;;;;;;;2.48;85.20;94578.88;5036708;28;986;-51
2023/01/28 00:53:38;;;;;;;;;;;;;;;2.50;86.15;94576.94;5036512;28;1050;-51
2023/01/28 00:56:05;;;;;;;;;;;;;;;2.48;85.92;94586.81;5036541;28;1236;-51
2023/01/28 00:58:31;;;;;;;;;;;;;;;2.50;86.44;94591.00;5036620;28;1044;-51
2023/01/28 01:01:11;;;;;;;;;;;;;;;2.58;84.41;94584.25;5036646;28;977;-51
2023/01/28 01:03:37;;;;;;;;;;;;;;;2.48;85.61;94579.72;5036304;28;1208;-51
2023/01/28 01:06:03;;;;;;;;;;;;;;;2.56;85.53;94580.88;5036374;28;2004;-51
2023/01/28 01:08:33;;;;;;;;;;;;;;;2.59;85.41;94580.66;5036215;28;1009;-51
2023/01/28 01:11:03;;;;;;;;;;;;;;;2.54;85.07;94589.78;5036554;28;1025;-51
2023/01/28 01:13:30;;;;;;;;;;;;;;;2.57;85.32;94585.22;5036201;28;1034;-50
2023/01/28 01:16:09;;;;;;;;;;;;;;;2.56;85.16;94581.72;5036196;28;1045;-50
2023/01/28 01:18:36;;;;;;;;;;;;;;;2.61;84.12;94584.00;5036021;28;1118;-51
2023/01/28 01:21:06;;;;;;;;;;;;;;;2.62;83.80;94577.72;5036074;28;1116;-51
2023/01/28 01:23:32;;;;;;;;;;;;;;;2.60;83.70;94579.66;5036217;28;974;-50
2023/01/28 01:25:58;;;;;;;;;;;;;;;2.56;83.24;94587.00;5036147;28;1934;-51
2023/01/28 01:28:24;;;;;;;;;;;;;;;2.50;83.10;94580.44;5036020;28;1048;-51
2023/01/28 01:30:57;;;;;;;;;;;;;;;2.58;82.59;94586.88;5035965;28;1913;-51
2023/01/28 01:33:23;;;;;;;;;;;;;;;2.53;82.96;94582.81;5035736;28;1527;-51
2023/01/28 01:35:53;;;;;;;;;;;;;;;2.57;82.41;94585.22;5035680;28;1107;-51
2023/01/28 01:38:19;;;;;;;;;;;;;;;2.62;82.31;94590.94;5035922;28;1048;-51
2023/01/28 01:40:45;;;;;;;;;;;;;;;2.73;81.29;94590.88;5035857;28;1029;-51
2023/01/28 01:43:15;;;;;;;;;;;;;;;2.65;82.40;94583.59;5035642;28;1042;-51
2023/01/28 01:45:43;;;;;;;;;;;;;;;2.68;81.95;94585.16;5035652;28;1025;-51
2023/01/28 01:48:15;;;;;;;;;;;;;;;2.71;81.33;94584.91;5035471;28;1979;-51
2023/01/28 01:51:01;;;;;;;;;;;;;;;2.77;80.33;94588.84;5035517;28;1101;-51
2023/01/28 01:53:28;;;;;;;;;;;;;;;2.66;80.76;94590.56;5035275;28;1111;-51
2023/01/28 01:55:56;;;;;;;;;;;;;;;2.70;80.05;94592.00;5035429;28;1115;-51
2023/01/28 01:58:24;;;;;;;;;;;;;;;2.62;80.59;94596.22;5035391;28;1005;-52
2023/01/28 02:00:51;;;;;;;;;;;;;;;2.59;79.99;94592.03;5035286;28;1084;-51
2023/01/28 02:03:21;;;;;;;;;;;;;;;2.70;80.44;94599.06;5035555;28;1068;-51
2023/01/28 02:05:48;;;;;;;;;;;;;;;2.65;80.40;94596.81;5035425;28;1010;-51
2023/01/28 02:08:20;;;;;;;;;;;;;;;2.79;79.59;94597.47;5035312;28;1919;-51
2023/01/28 02:10:52;;;;;;;;;;;;;;;2.72;79.80;94602.44;5035284;28;1032;-50
2023/01/28 02:13:19;;;;;;;;;;;;;;;2.69;79.80;94594.75;5034887;28;1110;-51
2023/01/28 02:15:46;;;;;;;;;;;;;;;2.69;79.71;94597.38;5035056;28;1057;-51
2023/01/28 02:18:12;;;;;;;;;;;;;;;2.58;80.95;94598.28;5035057;28;1105;-51
2023/01/28 02:20:56;;;;;;;;;;;;;;;2.61;80.77;94589.28;5035017;28;1032;-51
2023/01/28 02:23:38;;;;;;;;;;;;;;;2.65;79.70;94595.97;5034828;28;971;-51
2023/01/28 02:26:07;;;;;;;;;;;;;;;2.62;78.70;94598.84;5035029;28;1914;-51
2023/01/28 02:28:39;;;;;;;;;;;;;;;2.54;79.79;94595.06;5034268;28;1876;-51
2023/01/28 02:31:05;;;;;;;;;;;;;;;2.70;79.38;94605.19;5034910;28;1005;-51
2023/01/28 02:33:46;;;;;;;;;;;;;;;2.74;78.58;94603.97;5034526;28;1642;-51
2023/01/28 02:36:20;;;;;;;;;;;;;;;2.51;79.42;94600.59;5034669;28;1049;-51
2023/01/28 02:38:48;;;;;;;;;;;;;;;2.54;80.04;94604.75;5034859;28;1056;-51
2023/01/28 02:41:20;;;;;;;;;;;;;;;2.65;79.55;94607.34;5034755;28;997;-51
2023/01/28 02:43:46;;;;;;;;;;;;;;;2.71;80.17;94606.88;5034690;28;954;-50
2023/01/28 02:49:35;;;;;;;;;;;;;;;2.71;79.91;94613.94;5034651;28;1009;-51
2023/01/28 02:52:01;;;;;;;;;;;;;;;2.60;80.41;94613.97;5034501;28;1060;-51
2023/01/28 02:54:39;;;;;;;;;;;;;;;2.57;80.99;94607.16;5034342;28;1065;-50
2023/01/28 02:57:11;;;;;;;;;;;;;;;2.65;80.98;94612.63;5034251;28;1073;-50
2023/01/28 02:59:44;;;;;;;;;;;;;;;2.70;80.08;94607.81;5034312;28;977;-51
2023/01/28 03:02:22;;;;;;;;;;;;;;;2.69;81.15;94610.59;5034379;28;976;-51
2023/01/28 03:04:48;;;;;;;;;;;;;;;2.60;81.21;94619.25;5034236;28;1044;-51
2023/01/28 03:07:16;;;;;;;;;;;;;;;2.59;81.23;94613.16;5034067;28;1918;-50
2023/01/28 03:09:44;;;;;;;;;;;;;;;2.53;81.49;94614.50;5033923;28;1125;-50
2023/01/28 03:37:38;;;;;;;;;;;;;;;2.39;81.67;94630.63;5033601;28;1054;-51
2023/01/28 03:40:06;;;;;;;;;;;;;;;2.36;82.86;94627.41;5033234;28;1024;-51
2023/01/28 03:42:32;;;;;;;;;;;;;;;2.30;82.57;94628.72;5033283;28;1421;-51
2023/01/28 03:45:00;;;;;;;;;;;;;;;2.32;82.22;94626.78;5033539;28;1064;-57
2023/01/28 03:47:27;;;;;;;;;;;;;;;2.31;82.79;94623.28;5032090;28;1910;-51
2023/01/28 03:49:54;;;;;;;;;;;;;;;2.37;81.87;94624.59;5033585;28;1053;-51
2023/01/28 03:52:23;;;;;;;;;;;;;;;2.36;82.22;94630.03;5033572;28;993;-51
2023/01/28 03:54:51;;;;;;;;;;;;;;;2.41;82.41;94626.06;5033535;28;1083;-51
2023/01/28 03:57:19;;;;;;;;;;;;;;;2.45;81.95;94626.66;5032376;28;1591;-52
2023/01/28 03:59:48;;;;;;;;;;;;;;;2.34;82.02;94638.88;5033274;28;1089;-52
2023/01/28 04:02:14;;;;;;;;;;;;;;;2.32;83.00;94642.63;5033337;28;1510;-52
2023/01/28 04:04:41;;;;;;;;;;;;;;;2.29;83.28;94634.94;5033462;28;1048;-52
2023/01/28 04:07:09;;;;;;;;;;;;;;;2.28;82.89;94642.03;5033180;28;1996;-52
2023/01/28 04:09:35;;;;;;;;;;;;;;;2.39;82.96;94646.47;5033158;28;1034;-52
2023/01/28 04:12:02;;;;;;;;;;;;;;;2.38;82.71;94651.84;5033325;28;1033;-52
2023/01/28 04:14:28;;;;;;;;;;;;;;;2.36;82.93;94649.31;5033094;28;994;-52
2023/01/28 04:16:54;;;;;;;;;;;;;;;2.35;82.25;94652.91;5033438;28;958;-52
2023/01/28 04:19:20;;;;;;;;;;;;;;;2.30;82.36;94653.28;5033137;28;1062;-52
2023/01/28 04:21:47;;;;;;;;;;;;;;;2.32;82.81;94653.19;5033137;28;1112;-52
2023/01/28 04:24:14;;;;;;;;;;;;;;;2.30;83.06;94661.22;5033104;28;1074;-52
2023/01/28 04:26:40;;;;;;;;;;;;;;;2.32;82.11;94659.28;5032946;28;1906;-52
2023/01/28 04:29:06;;;;;;;;;;;;;;;2.29;82.33;94664.78;5033076;28;962;-52
2023/01/28 04:31:33;;;;;;;;;;;;;;;2.23;82.71;94669.75;5032917;28;1539;-52
2023/01/28 04:33:59;;;;;;;;;;;;;;;2.28;83.25;94664.94;5032890;28;1086;-52
2023/01/28 04:36:25;;;;;;;;;;;;;;;2.16;82.75;94669.38;5032862;28;1133;-52
2023/01/28 04:38:52;;;;;;;;;;;;;;;2.22;83.51;94668.91;5033099;28;981;-52
2023/01/28 04:41:18;;;;;;;;;;;;;;;2.23;83.41;94669.75;5032891;28;1053;-52
2023/01/28 04:43:44;;;;;;;;;;;;;;;2.10;83.60;94673.34;5032858;28;1030;-51
2023/01/28 04:46:10;;;;;;;;;;;;;;;2.01;84.83;94682.00;5033035;28;1992;-52
2023/01/28 04:48:37;;;;;;;;;;;;;;;2.03;84.67;94677.44;5033022;28;985;-52
2023/01/28 04:51:03;;;;;;;;;;;;;;;2.08;83.43;94679.69;5032775;28;1077;-52
2023/01/28 04:53:29;;;;;;;;;;;;;;;2.12;83.82;94686.41;5036038;28;1042;-52
2023/01/28 04:55:56;;;;;;;;;;;;;;;2.01;84.48;94697.81;5036688;28;1056;-52
2023/01/28 04:58:22;;;;;;;;;;;;;;;2.07;83.73;94692.06;5036435;28;1037;-52
2023/01/28 05:00:55;;;;;;;;;;;;;;;2.14;83.57;94695.91;5036474;28;1104;-52
2023/01/28 05:03:22;;;;;;;;;;;;;;;2.11;84.48;94701.41;5036614;28;958;-52
2023/01/28 05:05:48;;;;;;;;;;;;;;;2.07;84.25;94699.13;5036560;28;1081;-52
2023/01/28 05:08:14;;;;;;;;;;;;;;;2.05;84.15;94706.31;5036426;28;1977;-53
2023/01/28 05:10:40;;;;;;;;;;;;;;;2.03;83.71;94701.16;5036283;28;1089;-52
2023/01/28 05:13:06;;;;;;;;;;;;;;;2.03;83.11;94709.09;5036183;28;1065;-52
2023/01/28 05:15:32;;;;;;;;;;;;;;;1.95;83.94;94707.03;5036117;28;1038;-52
2023/01/28 05:17:58;;;;;;;;;;;;;;;2.05;82.95;94708.94;5036379;28;1053;-53
2023/01/28 05:20:25;;;;;;;;;;;;;;;2.05;82.79;94708.94;5036237;28;994;-52
2023/01/28 05:22:51;;;;;;;;;;;;;;;2.08;82.33;94706.91;5036094;28;1125;-52
2023/01/28 05:25:17;;;;;;;;;;;;;;;2.09;82.56;94710.41;5036108;28;1057;-52
2023/01/28 05:27:48;;;;;;;;;;;;;;;2.07;83.10;94713.16;5035956;28;1989;-52
2023/01/28 05:30:14;;;;;;;;;;;;;;;2.06;83.22;94711.47;5036225;28;990;-52
2023/01/28 05:32:40;;;;;;;;;;;;;;;2.02;83.50;94715.31;5035902;28;1536;-52
2023/01/28 05:35:07;;;;;;;;;;;;;;;1.95;83.84;94717.59;5035753;28;1165;-52
2023/01/28 05:37:33;;;;;;;;;;;;;;;2.03;83.75;94722.28;5035752;28;1265;-53
2023/01/28 05:39:59;;;;;;;;;;;;;;;2.13;83.42;94720.56;5035803;28;1037;-52
2023/01/28 05:42:25;;;;;;;;;;;;;;;2.06;84.08;94726.44;5035571;28;1052;-53
2023/01/28 05:44:51;;;;;;;;;;;;;;;2.08;82.87;94730.63;5035812;28;1037;-53
2023/01/28 05:47:17;;;;;;;;;;;;;;;2.02;83.15;94725.03;5035753;28;1991;-51
2023/01/28 05:49:43;;;;;;;;;;;;;;;2.13;83.09;94733.75;5035745;28;995;-51
2023/01/28 05:52:09;;;;;;;;;;;;;;;2.07;83.17;94733.41;5035561;28;1093;-51
2023/01/28 05:54:35;;;;;;;;;;;;;;;2.10;82.97;94739.25;5035494;28;1022;-51
2023/01/28 05:57:01;;;;;;;;;;;;;;;2.20;82.31;94735.91;5035410;28;986;-52
2023/01/28 05:59:27;;;;;;;;;;;;;;;2.17;82.69;94742.28;5035274;28;1042;-51
2023/01/28 06:01:53;;;;;;;;;;;;;;;2.21;82.50;94738.44;5035505;28;1040;-50
2023/01/28 06:04:19;;;;;;;;;;;;;;;2.32;81.19;94748.16;5034506;28;1061;-50
2023/01/28 06:06:46;;;;;;;;;;;;;;;2.29;82.01;94749.22;5034130;28;1985;-51
2023/01/28 06:09:12;;;;;;;;;;;;;;;2.28;81.51;94754.63;5035283;28;962;-51
2023/01/28 06:11:38;;;;;;;;;;;;;;;2.22;82.25;94760.38;5035014;28;1014;-51
2023/01/28 06:14:04;;;;;;;;;;;;;;;2.18;82.58;94766.84;5035068;28;1062;-51
2023/01/28 06:16:30;;;;;;;;;;;;;;;2.21;82.21;94766.63;5035210;28;1065;-51
2023/01/28 06:18:56;;;;;;;;;;;;;;;2.25;82.04;94766.25;5035213;28;1006;-51
2023/01/28 06:21:22;;;;;;;;;;;;;;;2.39;80.72;94775.75;5034874;28;1042;-51
2023/01/28 06:23:48;;;;;;;;;;;;;;;2.34;79.78;94784.00;5035077;28;1072;-51
2023/01/28 06:26:15;;;;;;;;;;;;;;;2.22;80.48;94782.34;5033705;28;1997;-51
2023/01/28 06:28:41;;;;;;;;;;;;;;;2.27;80.45;94792.50;5034983;28;1029;-50
2023/01/28 06:31:07;;;;;;;;;;;;;;;2.28;80.10;94789.75;5033115;28;1294;-51
2023/01/28 06:33:33;;;;;;;;;;;;;;;2.28;79.76;94795.03;5033511;28;1278;-52
2023/01/28 06:36:01;;;;;;;;;;;;;;;2.38;79.26;94794.31;5034111;28;1104;-51
2023/01/28 06:38:27;;;;;;;;;;;;;;;2.40;78.96;94797.69;5034519;28;1036;-50
2023/01/28 06:40:54;;;;;;;;;;;;;;;2.44;78.49;94799.94;5034639;28;1085;-51
2023/01/28 06:43:26;;;;;;;;;;;;;;;2.41;78.60;94802.84;5034663;28;1037;-51
2023/01/28 06:45:53;;;;;;;;;;;;;;;2.46;78.75;94805.09;5034691;28;985;-51
2023/01/28 06:48:19;;;;;;;;;;;;;;;2.44;78.59;94805.22;5034382;28;1989;-51
2023/01/28 06:50:46;;;;;;;;;;;;;;;2.29;79.15;94816.97;5034504;28;1048;-51
2023/01/28 06:53:13;;;;;;;;;;;;;;;2.42;79.16;94816.88;5034325;28;1038;-51
2023/01/28 06:55:39;;;;;;;;;;;;;;;2.41;79.10;94821.31;5034418;28;978;-50
2023/01/28 06:58:05;;;;;;;;;;;;;;;2.46;78.90;94816.50;5034425;28;1060;-50
2023/01/28 07:00:31;;;;;;;;;;;;;;;2.58;77.94;94824.41;5033054;28;986;-51
2023/01/28 07:02:57;;;;;;;;;;;;;;;2.44;77.73;94831.59;5034331;28;1053;-50
2023/01/28 07:05:24;;;;;;;;;;;;;;;2.45;78.49;94835.94;5034148;28;1076;-51
2023/01/28 07:07:50;;;;;;;;;;;;;;;2.53;77.87;94836.16;5033972;28;1989;-51
2023/01/28 07:10:16;;;;;;;;;;;;;;;2.47;77.64;94839.31;5034210;28;966;-51
2023/01/28 07:12:42;;;;;;;;;;;;;;;2.44;78.42;94841.34;5033793;28;953;-51
2023/01/28 07:15:11;;;;;;;;;;;;;;;2.39;78.20;94848.75;5033996;28;1112;-51
2023/01/28 07:17:41;;;;;;;;;;;;;;;2.48;77.42;94853.31;5033984;28;824;-50
2023/01/28 07:20:07;;;;;;;;;;;;;;;2.40;77.48;94853.91;5033918;28;1013;-51
2023/01/28 07:22:34;;;;;;;;;;;;;;;2.43;76.05;94860.75;5033651;28;1013;-50
2023/01/28 07:25:00;;;;;;;;;;;;;;;2.53;75.77;94852.00;5033896;28;1048;-49
2023/01/28 07:27:26;;;;;;;;;;;;;;;2.65;76.15;94857.28;5033823;28;1965;-48
2023/01/28 07:29:52;;;;;;;;;;;;;;;2.58;75.93;94862.22;5032527;28;1226;-48
2023/01/28 07:32:18;;;;;;;;;;;;;;;2.52;76.12;94860.91;5032315;28;1378;-50
2023/01/28 07:34:44;;;;;;;;;;;;;;;2.62;76.00;94865.44;5033464;28;1098;-51
2023/01/28 07:37:10;;;;;;;;;;;;;;;2.69;74.80;94872.78;5033492;28;1030;-50
2023/01/28 07:39:37;;;;;;;;;;;;;;;2.68;76.02;94873.72;5033487;28;918;-50
2023/01/28 07:42:03;;;;;;;;;;;;;;;2.70;76.66;94879.72;5033196;28;1084;-51
2023/01/28 07:44:29;;;;;;;;;;;;;;;2.71;75.96;94881.44;5033328;28;1112;-50
2023/01/28 07:46:55;;;;;;;;;;;;;;;2.67;75.57;94879.97;5033433;28;1923;-51
2023/01/28 07:49:21;;;;;;;;;;;;;;;2.78;75.65;94886.22;5033392;28;1005;-51
2023/01/28 07:51:49;;;;;;;;;;;;;;;2.82;75.06;94887.66;5033159;28;1109;-51
2023/01/28 07:54:15;;;;;;;;;;;;;;;2.86;74.93;94884.63;5033443;28;1097;-50
2023/01/28 07:56:41;;;;;;;;;;;;;;;2.84;74.78;94889.19;5033351;28;1058;-50
2023/01/28 07:59:07;;;;;;;;;;;;;;;2.93;74.09;94890.28;5033534;28;1014;-50
2023/01/28 08:01:33;;;;;;;;;;;;;;;2.85;71.65;94890.91;5032958;28;1166;-50
2023/01/28 08:03:59;;;;;;;;;;;;;;;2.88;73.18;94892.44;5033310;28;1088;-50
2023/01/28 08:06:27;;;;;;;;;;;;;;;2.88;74.66;94895.94;5033053;28;1894;-50
2023/01/28 08:08:53;;;;;;;;;;;;;;;2.93;73.85;94899.03;5033502;28;1520;-50
2023/01/28 08:11:19;;;;;;;;;;;;;;;3.13;72.12;94899.28;5033357;28;1001;-49
2023/01/28 08:13:47;;;;;;;;;;;;;;;3.14;71.38;94900.94;5033049;28;1195;-49
2023/01/28 08:16:13;;;;;;;;;;;;;;;3.24;72.01;94904.53;5033346;28;1049;-50
2023/01/28 08:18:39;;;;;;;;;;;;;;;3.30;72.67;94901.41;5033066;28;1046;-50
2023/01/28 08:21:05;;;;;;;;;;;;;;;3.43;72.61;94909.19;5033146;28;1053;-50
2023/01/28 08:23:33;;;;;;;;;;;;;;;3.54;70.66;94905.69;5032852;28;1549;-50
2023/01/28 08:25:59;;;;;;;;;;;;;;;3.52;70.82;94908.44;5033093;28;1882;-50
2023/01/28 08:28:25;;;;;;;;;;;;;;;3.52;70.36;94903.16;5036472;28;1984;-50
2023/01/28 08:30:52;;;;;;;;;;;;;;;3.50;70.47;94905.09;5037029;28;1101;-50
2023/01/28 08:33:18;;;;;;;;;;;;;;;3.63;70.08;94904.09;5036605;28;1467;-50
2023/01/28 08:35:44;;;;;;;;;;;;;;;3.67;71.84;94902.88;5036743;28;1082;-50
2023/01/28 08:38:11;;;;;;;;;;;;;;;3.50;71.33;94904.25;5037154;28;1030;-50
2023/01/28 08:40:38;;;;;;;;;;;;;;;3.49;71.21;94905.19;5037012;28;954;-50
2023/01/28 08:43:04;;;;;;;;;;;;;;;3.54;70.58;94905.69;5036579;28;1325;-50
2023/01/28 08:45:30;;;;;;;;;;;;;;;3.64;70.58;94911.06;5036817;28;1017;-51
2023/01/28 08:47:57;;;;;;;;;;;;;;;3.67;70.95;94913.47;5036792;28;2219;-51
2023/01/28 08:50:25;;;;;;;;;;;;;;;3.84;70.35;94917.38;5036483;28;1109;-51
2023/01/28 08:52:58;;;;;;;;;;;;;;;3.89;69.94;94925.78;5036594;28;1028;-51
2023/01/28 08:55:24;;;;;;;;;;;;;;;3.91;71.30;94915.91;5036654;28;1068;-51
2023/01/28 08:57:50;;;;;;;;;;;;;;;3.93;71.54;94924.56;5036537;28;1022;-51
2023/01/28 09:00:16;;;;;;;;;;;;;;;3.87;72.72;94917.97;5036391;28;1182;-51
2023/01/28 09:02:42;;;;;;;;;;;;;;;3.80;70.99;94916.78;5036202;28;1044;-51
2023/01/28 09:05:09;;;;;;;;;;;;;;;3.90;71.55;94914.22;5036319;28;958;-51
2023/01/28 09:07:36;;;;;;;;;;;;;;;3.93;72.42;94911.34;5036403;28;1890;-51
2023/01/28 09:10:03;;;;;;;;;;;;;;;3.82;72.21;94912.22;5036410;28;974;-51
2023/01/28 09:12:30;;;;;;;;;;;;;;;3.75;71.19;94913.66;5035799;28;1100;-51
2023/01/28 09:14:56;;;;;;;;;;;;;;;3.77;71.90;94911.72;5036141;28;1097;-51
2023/01/28 09:17:22;;;;;;;;;;;;;;;3.99;71.61;94910.00;5036160;28;977;-51
2023/01/28 09:19:49;;;;;;;;;;;;;;;3.91;71.16;94915.91;5036028;28;989;-51
2023/01/28 09:22:15;;;;;;;;;;;;;;;3.80;71.27;94915.94;5035711;28;1135;-51
2023/01/28 09:24:41;;;;;;;;;;;;;;;3.71;72.08;94912.25;5035956;28;1069;-51
2023/01/28 09:27:07;;;;;;;;;;;;;;;3.88;71.69;94911.69;5036009;28;1907;-51
2023/01/28 09:29:33;;;;;;;;;;;;;;;3.86;71.79;94910.97;5036094;28;1367;-50
2023/01/28 09:32:00;;;;;;;;;;;;;;;3.86;72.66;94910.16;5035687;28;1626;-51
2023/01/28 09:34:26;;;;;;;;;;;;;;;4.09;71.39;94909.06;5035530;28;1086;-52
2023/01/28 09:36:52;;;;;;;;;;;;;;;4.21;71.24;94909.88;5035941;28;959;-52
2023/01/28 09:39:18;;;;;;;;;;;;;;;4.34;71.12;94914.13;5034594;28;1013;-52
2023/01/28 09:42:08;;;;;;;;;;;;;;;4.47;69.34;94905.03;5035845;28;985;-52
2023/01/28 09:44:37;;;;;;;;;;;;;;;4.55;69.18;94908.84;5035835;28;1650;-52
2023/01/28 09:47:08;;;;;;;;;;;;;;;4.55;70.97;94908.84;5035498;28;1906;-51
2023/01/28 09:49:39;;;;;;;;;;;;;;;4.65;68.32;94902.63;5035510;28;1106;-51
2023/01/28 09:52:11;;;;;;;;;;;;;;;4.92;67.15;94903.88;5035316;28;1151;-50
2023/01/28 09:54:40;;;;;;;;;;;;;;;5.08;67.48;94906.88;5035570;28;1021;-51
2023/01/28 09:57:16;;;;;;;;;;;;;;;5.12;66.80;94899.47;5035440;28;990;-50
2023/01/28 09:59:42;;;;;;;;;;;;;;;5.36;67.10;94898.31;5035564;28;1053;-51
2023/01/28 10:02:26;;;;;;;;;;;;;;;5.36;67.16;94896.50;5033886;28;1089;-51
2023/01/28 10:04:52;;;;;;;;;;;;;;;5.49;66.78;94901.56;5035434;28;1124;-50
2023/01/28 10:07:41;;;;;;;;;;;;;;;5.48;64.76;94897.22;5035068;28;1994;-51
2023/01/28 10:10:11;;;;;;;;;;;;;;;5.54;65.09;94896.69;5035427;28;1068;-51
2023/01/28 10:12:48;;;;;;;;;;;;;;;5.65;66.86;94901.88;5035194;28;1293;-50
2023/01/28 10:15:34;;;;;;;;;;;;;;;5.71;64.46;94899.63;5035361;28;1060;-51
2023/01/28 10:18:03;;;;;;;;;;;;;;;5.37;64.73;94886.72;5035088;28;1037;-51
2023/01/28 10:20:32;;;;;;;;;;;;;;;5.33;64.98;94886.19;5034887;28;1060;-51
2023/01/28 10:23:10;;;;;;;;;;;;;;;5.36;64.74;94891.19;5034905;28;1295;-51
2023/01/28 10:25:36;;;;;;;;;;;;;;;5.49;65.73;94890.94;5035035;28;1032;-51
2023/01/28 10:28:13;;;;;;;;;;;;;;;5.60;65.07;94888.19;5034809;28;1906;-51
2023/01/28 10:30:41;;;;;;;;;;;;;;;5.70;64.95;94892.66;5034764;28;966;-51
2023/01/28 10:33:16;;;;;;;;;;;;;;;5.55;63.37;94881.63;5034448;28;1305;-51
2023/01/28 10:35:42;;;;;;;;;;;;;;;5.48;64.33;94879.50;5034589;28;1229;-51
2023/01/28 10:38:18;;;;;;;;;;;;;;;5.65;65.06;94879.81;5034872;28;1073;-51
2023/01/28 10:40:46;;;;;;;;;;;;;;;5.79;63.25;94883.88;5034831;28;1060;-51
2023/01/28 10:43:17;;;;;;;;;;;;;;;5.79;64.56;94881.22;5034391;28;1239;-51
2023/01/28 10:45:43;;;;;;;;;;;;;;;5.83;65.28;94878.16;5034742;28;969;-51
2023/01/28 10:48:23;;;;;;;;;;;;;;;5.86;63.06;94875.22;5034671;28;1906;-51
2023/01/28 10:50:55;;;;;;;;;;;;;;;5.93;64.06;94872.84;5034249;28;1013;-51
2023/01/28 10:53:38;;;;;;;;;;;;;;;5.96;62.55;94869.94;5034282;28;1229;-51
2023/01/28 10:56:06;;;;;;;;;;;;;;;6.05;63.13;94868.25;5034322;28;1046;-51
2023/01/28 10:58:33;;;;;;;;;;;;;;;6.17;61.74;94866.31;5034385;28;1029;-51
2023/01/28 11:01:01;;;;;;;;;;;;;;;6.30;62.02;94868.66;5034195;28;985;-52
2023/01/28 11:03:29;;;;;;;;;;;;;;;6.16;61.38;94861.97;5034062;28;1294;-52
2023/01/28 11:05:56;;;;;;;;;;;;;;;5.94;62.67;94871.88;5034216;28;1049;-52
2023/01/28 11:08:23;;;;;;;;;;;;;;;6.00;62.96;94863.38;5033940;28;1989;-51
2023/01/28 11:10:51;;;;;;;;;;;;;;;5.89;61.84;94860.84;5033299;28;1017;-50
2023/01/28 11:13:17;;;;;;;;;;;;;;;6.01;63.33;94857.13;5032934;28;1001;-50
2023/01/28 11:15:50;;;;;;;;;;;;;;;5.98;62.80;94848.59;5033518;28;1006;-51
2023/01/28 11:18:24;;;;;;;;;;;;;;;6.01;63.28;94856.25;5033049;28;1888;-51
2023/01/28 11:20:52;;;;;;;;;;;;;;;5.99;63.39;94851.06;5033676;28;1148;-51
2023/01/28 11:23:23;;;;;;;;;;;;;;;5.95;63.15;94849.69;5033641;28;1045;-51
2023/01/28 11:25:58;;;;;;;;;;;;;;;6.08;62.12;94846.75;5033912;28;982;-51
2023/01/28 11:28:24;;;;;;;;;;;;;;;6.09;62.84;94851.09;5033703;28;1966;-51
2023/01/28 11:30:52;;;;;;;;;;;;;;;6.31;60.61;94847.28;5033686;28;1043;-50
2023/01/28 11:33:20;;;;;;;;;;;;;;;6.40;61.61;94842.94;5033650;28;1301;-51
2023/01/28 11:36:19;;;;;;;;;;;;;;;6.31;61.48;94849.94;5009663;28;1592;-51
2023/01/28 11:38:55;;;;;;;;;;;;;;;6.54;61.47;94850.44;4994431;28;1069;-51
2023/01/28 11:41:33;;;;;;;;;;;;;;;6.60;61.58;94847.22;4994271;28;1141;-52
2023/01/28 11:44:10;;;;;;;;;;;;;;;6.53;60.20;94847.94;4994090;28;1018;-52
2023/01/28 11:46:42;;;;;;;;;;;;;;;6.28;62.36;94849.38;4993992;28;1987;-52
2023/01/28 11:49:14;;;;;;;;;;;;;;;6.32;61.94;94845.44;4994168;28;1043;-52
2023/01/28 11:51:49;;;;;;;;;;;;;;;6.51;62.26;94839.28;4993950;28;1231;-52
2023/01/28 11:54:24;;;;;;;;;;;;;;;6.44;62.36;94841.66;4994035;28;997;-52
2023/01/28 11:56:50;;;;;;;;;;;;;;;6.44;62.42;94844.31;4993989;28;1034;-52
2023/01/28 11:59:34;;;;;;;;;;;;;;;6.51;61.93;94845.44;4994130;28;966;-52
2023/01/28 12:02:19;;;;;;;;;;;;;;;6.49;61.30;94839.44;4993286;28;1022;-52
2023/01/28 12:05:00;;;;;;;;;;;;;;;6.52;61.42;94848.91;4993925;28;1042;-52
2023/01/28 12:07:38;;;;;;;;;;;;;;;6.69;62.63;94831.41;4993965;28;2009;-52
2023/01/28 12:10:36;;;;;;;;;;;;;;;6.86;61.57;94837.78;4993868;28;1108;-52
2023/01/28 12:13:05;;;;;;;;;;;;;;;6.93;60.19;94837.03;4981841;28;1348;-52
2023/01/28 12:15:43;;;;;;;;;;;;;;;6.62;61.63;94837.28;4992896;28;1697;-52
2023/01/28 12:18:19;;;;;;;;;;;;;;;6.55;62.08;94841.50;4992462;28;1232;-52
2023/01/28 12:20:58;;;;;;;;;;;;;;;6.71;61.27;94840.06;4993916;28;1014;-52
2023/01/28 12:23:44;;;;;;;;;;;;;;;6.74;60.97;94835.28;4993843;28;962;-52
2023/01/28 12:26:34;;;;;;;;;;;;;;;6.84;60.83;94840.56;4993633;28;1113;-52
2023/01/28 12:29:19;;;;;;;;;;;;;;;6.77;59.81;94844.78;4993697;28;1150;-52
2023/01/28 12:31:48;;;;;;;;;;;;;;;6.50;61.86;94848.22;4993612;28;1239;-51
2023/01/28 12:34:31;;;;;;;;;;;;;;;6.31;62.55;94859.72;4993537;28;978;-52
2023/01/28 12:37:06;;;;;;;;;;;;;;;6.01;61.35;94858.91;5008851;28;1240;-52
2023/01/28 12:39:35;;;;;;;;;;;;;;;6.01;62.94;94853.59;5033124;28;1013;-52
2023/01/28 12:42:09;;;;;;;;;;;;;;;5.99;62.54;94853.72;5033027;28;970;-52
2023/01/28 12:44:39;;;;;;;;;;;;;;;5.76;63.88;94863.75;5032827;28;1105;-52
2023/01/28 12:47:16;;;;;;;;;;;;;;;5.82;64.43;94870.31;5032734;28;1981;-52
2023/01/28 12:49:48;;;;;;;;;;;;;;;5.67;64.60;94872.53;5032877;28;1096;-52
2023/01/28 12:52:17;;;;;;;;;;;;;;;5.51;64.82;94870.44;5032733;28;1120;-52
2023/01/28 12:54:52;;;;;;;;;;;;;;;5.63;65.62;94869.34;5033126;28;1471;-52
2023/01/28 12:57:21;;;;;;;;;;;;;;;5.74;65.15;94873.66;5032750;28;1225;-52
2023/01/28 12:59:50;;;;;;;;;;;;;;;5.93;64.02;94867.53;5032925;28;978;-52
2023/01/28 13:02:21;;;;;;;;;;;;;;;6.00;63.03;94862.56;5032892;28;1028;-52
2023/01/28 13:04:55;;;;;;;;;;;;;;;5.85;62.70;94870.06;5032886;28;977;-52
2023/01/28 13:07:48;;;;;;;;;;;;;;;5.98;64.89;94865.34;5032667;28;1915;-52
2023/01/28 13:10:35;;;;;;;;;;;;;;;6.31;62.82;94870.34;5029851;28;2032;-52
2023/01/28 13:13:02;;;;;;;;;;;;;;;6.28;60.78;94876.78;5033822;28;1036;-52
2023/01/28 13:15:29;;;;;;;;;;;;;;;6.15;61.51;94877.06;5036168;28;1026;-52
2023/01/28 13:18:00;;;;;;;;;;;;;;;6.17;61.84;94874.28;5036254;28;1028;-52
2023/01/28 13:20:29;;;;;;;;;;;;;;;6.38;60.54;94876.78;5036120;28;1124;-52
2023/01/28 13:22:59;;;;;;;;;;;;;;;6.45;61.81;94877.88;5036417;28;1005;-50
2023/01/28 13:25:26;;;;;;;;;;;;;;;6.33;61.00;94885.16;5035982;28;1050;-52
2023/01/28 13:27:57;;;;;;;;;;;;;;;6.30;61.15;94879.28;5036119;28;1992;-52
2023/01/28 13:30:48;;;;;;;;;;;;;;;6.19;61.49;94891.75;5036033;28;1032;-52
2023/01/28 13:33:49;;;;;;;;;;;;;;;6.15;61.10;94884.22;5036038;28;1238;-51
2023/01/28 13:36:24;;;;;;;;;;;;;;;6.42;61.62;94884.28;4939351;29;1364;-51
2023/01/28 13:39:02;;;;;;;;;;;;;;;6.50;62.02;94890.72;5024922;28;1039;-49
2023/01/28 13:41:39;;;;;;;;;;;;;;;6.34;61.82;94892.16;5035965;28;1013;-50
2023/01/28 13:44:24;;;;;;;;;;;;;;;6.22;61.17;94894.13;5035844;28;1332;-50
2023/01/28 13:46:50;;;;;;;;;;;;;;;5.99;61.82;94893.53;5035700;28;1906;-50
2023/01/28 13:49:36;;;;;;;;;;;;;;;5.99;63.67;94901.50;5035492;28;982;-50
2023/01/28 13:52:12;;;;;;;;;;;;;;;5.98;62.38;94906.97;5035684;28;1999;-50